createdAt,value
2022-12-17T00:00:09.011Z,0.00
2022-12-17T00:01:08.905Z,0.00
2022-12-17T00:02:08.895Z,0.00
2022-12-17T00:03:08.989Z,0.00
2022-12-17T00:04:09.042Z,0.00
2022-12-17T00:05:08.809Z,0.00
2022-12-17T00:06:08.787Z,0.00
2022-12-17T00:07:08.771Z,0.00
2022-12-17T00:08:08.739Z,0.00
2022-12-17T00:09:08.773Z,0.00
2022-12-17T00:10:08.728Z,0.00
2022-12-17T00:11:08.660Z,0.00
2022-12-17T00:12:08.634Z,0.00
2022-12-17T00:13:08.611Z,0.00
2022-12-17T00:14:08.583Z,0.00
2022-12-17T00:15:08.565Z,0.00
2022-12-17T00:16:08.612Z,0.00
2022-12-17T00:17:08.514Z,0.00
2022-12-17T00:18:08.486Z,0.00
2022-12-17T00:19:08.467Z,0.00
2022-12-17T00:20:08.467Z,0.00
2022-12-17T00:21:08.415Z,0.00
2022-12-17T00:22:08.390Z,0.00
2022-12-17T00:23:08.367Z,0.00
2022-12-17T00:24:08.337Z,0.00
2022-12-17T00:25:08.345Z,0.00
2022-12-17T00:26:08.292Z,0.00
2022-12-17T00:27:08.267Z,0.00
2022-12-17T00:28:08.246Z,0.00
2022-12-17T00:29:08.286Z,0.00
2022-12-17T00:30:08.195Z,0.00
2022-12-17T00:31:08.207Z,0.00
2022-12-17T00:32:08.141Z,0.00
2022-12-17T00:33:08.121Z,0.00
2022-12-17T00:34:08.093Z,0.00
2022-12-17T00:35:08.101Z,0.00
2022-12-17T00:36:08.045Z,0.00
2022-12-17T00:37:08.023Z,0.00
2022-12-17T00:38:08.008Z,0.00
2022-12-17T00:39:07.978Z,0.00
2022-12-17T00:40:07.980Z,0.00
2022-12-17T00:41:07.925Z,0.00
2022-12-17T00:42:07.902Z,0.00
2022-12-17T00:43:07.877Z,0.00
2022-12-17T00:44:07.865Z,0.00
2022-12-17T00:45:07.850Z,0.00
2022-12-17T00:46:07.799Z,0.00
2022-12-17T00:47:07.862Z,0.00
2022-12-17T00:48:07.745Z,0.00
2022-12-17T00:49:07.747Z,0.00
2022-12-17T00:50:07.728Z,0.00
2022-12-17T00:51:07.680Z,0.00
2022-12-17T00:52:07.665Z,0.00
2022-12-17T00:53:07.626Z,0.00
2022-12-17T00:54:07.599Z,0.00
2022-12-17T00:55:07.657Z,0.00
2022-12-17T00:56:07.551Z,0.00
2022-12-17T00:57:07.526Z,0.00
2022-12-17T00:58:07.506Z,0.00
2022-12-17T00:59:07.484Z,0.00
2022-12-17T01:00:07.459Z,0.00
2022-12-17T01:01:07.542Z,0.00
2022-12-17T01:02:07.487Z,0.00
2022-12-17T01:03:07.435Z,0.00
2022-12-17T01:04:07.356Z,0.00
2022-12-17T01:05:07.328Z,0.00
2022-12-17T01:06:07.305Z,0.00
2022-12-17T01:07:07.327Z,0.00
2022-12-17T01:08:07.252Z,0.00
2022-12-17T01:09:07.233Z,0.00
2022-12-17T01:10:07.202Z,0.00
2022-12-17T01:11:07.181Z,0.00
2022-12-17T01:12:07.190Z,0.00
2022-12-17T01:13:07.161Z,0.00
2022-12-17T01:14:07.109Z,0.00
2022-12-17T01:15:07.084Z,0.00
2022-12-17T01:16:07.072Z,0.00
2022-12-17T01:17:07.036Z,0.00
2022-12-17T01:18:07.082Z,0.00
2022-12-17T01:19:06.983Z,0.00
2022-12-17T01:20:06.956Z,0.00
2022-12-17T01:21:06.949Z,0.00
2022-12-17T01:22:06.916Z,0.00
2022-12-17T01:23:06.883Z,0.00
2022-12-17T01:24:06.907Z,0.00
2022-12-17T01:25:06.841Z,0.00
2022-12-17T01:26:06.812Z,0.00
2022-12-17T01:27:06.789Z,0.00
2022-12-17T01:28:06.765Z,0.00
2022-12-17T01:29:06.737Z,0.00
2022-12-17T01:30:06.736Z,0.00
2022-12-17T01:31:06.741Z,0.00
2022-12-17T01:32:06.718Z,0.00
2022-12-17T01:33:06.637Z,0.00
2022-12-17T01:34:06.607Z,0.00
2022-12-17T01:35:06.628Z,0.00
2022-12-17T01:36:06.565Z,0.00
2022-12-17T01:37:06.551Z,0.00
2022-12-17T01:38:06.521Z,0.00
2022-12-17T01:39:06.488Z,0.00
2022-12-17T01:40:06.499Z,0.00
2022-12-17T01:41:06.438Z,0.00
2022-12-17T01:42:06.409Z,0.00
2022-12-17T01:43:06.388Z,0.00
2022-12-17T01:44:06.363Z,0.00
2022-12-17T01:45:06.387Z,0.00
2022-12-17T01:46:06.345Z,0.00
2022-12-17T01:47:06.288Z,0.00
2022-12-17T01:48:06.278Z,0.00
2022-12-17T01:49:06.275Z,0.00
2022-12-17T01:50:06.222Z,0.00
2022-12-17T01:51:06.192Z,0.00
2022-12-17T01:52:06.175Z,0.00
2022-12-17T01:53:06.136Z,0.00
2022-12-17T01:54:06.117Z,0.00
2022-12-17T01:55:06.089Z,0.00
2022-12-17T01:56:06.101Z,0.00
2022-12-17T01:57:06.045Z,0.00
2022-12-17T01:58:06.012Z,0.00
2022-12-17T01:59:05.988Z,0.00
2022-12-17T02:00:05.967Z,0.00
2022-12-17T02:01:06.024Z,0.00
2022-12-17T02:02:06.210Z,0.00
2022-12-17T02:03:05.963Z,0.00
2022-12-17T02:04:05.869Z,0.00
2022-12-17T02:05:05.837Z,0.00
2022-12-17T02:06:05.818Z,0.00
2022-12-17T02:07:05.870Z,0.00
2022-12-17T02:08:05.798Z,0.00
2022-12-17T02:09:05.749Z,0.00
2022-12-17T02:10:05.724Z,0.00
2022-12-17T02:11:05.685Z,0.00
2022-12-17T02:12:05.666Z,0.00
2022-12-17T02:13:05.675Z,0.00
2022-12-17T02:14:05.624Z,0.00
2022-12-17T02:15:05.587Z,0.00
2022-12-17T02:16:05.599Z,0.00
2022-12-17T02:17:05.551Z,0.00
2022-12-17T02:18:05.516Z,0.00
2022-12-17T02:19:05.580Z,0.00
2022-12-17T02:20:05.468Z,0.00
2022-12-17T02:21:05.462Z,0.00
2022-12-17T02:22:05.420Z,0.00
2022-12-17T02:23:05.390Z,0.00
2022-12-17T02:24:05.368Z,0.00
2022-12-17T02:25:05.395Z,0.00
2022-12-17T02:26:05.327Z,0.00
2022-12-17T02:27:05.291Z,0.00
2022-12-17T02:28:05.270Z,0.00
2022-12-17T02:29:05.252Z,0.00
2022-12-17T02:30:05.225Z,0.00
2022-12-17T02:31:05.269Z,0.00
2022-12-17T02:32:05.217Z,0.00
2022-12-17T02:33:05.140Z,0.00
2022-12-17T02:34:06.072Z,0.00
2022-12-17T02:35:05.095Z,0.00
2022-12-17T02:36:05.067Z,0.00
2022-12-17T02:37:05.090Z,0.00
2022-12-17T02:38:05.017Z,0.00
2022-12-17T02:39:04.993Z,0.00
2022-12-17T02:40:04.967Z,0.00
2022-12-17T02:41:04.953Z,0.00
2022-12-17T02:42:04.917Z,0.00
2022-12-17T02:43:04.901Z,0.00
2022-12-17T02:44:04.866Z,0.00
2022-12-17T02:45:04.845Z,0.00
2022-12-17T02:46:04.857Z,0.00
2022-12-17T02:47:04.799Z,0.00
2022-12-17T02:48:04.855Z,0.00
2022-12-17T02:49:04.745Z,0.00
2022-12-17T02:50:04.728Z,0.00
2022-12-17T02:51:04.695Z,0.00
2022-12-17T02:52:04.675Z,0.00
2022-12-17T02:53:04.643Z,0.00
2022-12-17T02:54:04.617Z,0.00
2022-12-17T02:55:04.593Z,0.00
2022-12-17T02:56:04.583Z,0.00
2022-12-17T02:57:04.547Z,0.00
2022-12-17T02:58:04.516Z,0.00
2022-12-17T02:59:04.544Z,0.00
2022-12-17T03:00:04.469Z,0.00
2022-12-17T03:01:04.468Z,0.00
2022-12-17T03:02:04.590Z,0.00
2022-12-17T03:03:04.493Z,0.00
2022-12-17T03:04:04.362Z,0.00
2022-12-17T03:05:27.633Z,0.00
2022-12-17T03:06:04.319Z,0.00
2022-12-17T03:07:04.345Z,0.00
2022-12-17T03:08:04.265Z,0.00
2022-12-17T03:09:04.281Z,0.00
2022-12-17T03:10:04.261Z,0.00
2022-12-17T03:11:04.199Z,0.00
2022-12-17T03:12:04.180Z,0.00
2022-12-17T03:13:04.141Z,0.00
2022-12-17T03:14:04.126Z,0.00
2022-12-17T03:15:04.129Z,0.00
2022-12-17T03:16:04.070Z,0.00
2022-12-17T03:17:04.084Z,0.00
2022-12-17T03:18:04.035Z,0.00
2022-12-17T03:19:04.004Z,0.00
2022-12-17T03:20:03.975Z,0.00
2022-12-17T03:21:03.953Z,0.00
2022-12-17T03:22:03.918Z,0.00
2022-12-17T03:23:03.894Z,0.00
2022-12-17T03:24:03.872Z,0.00
2022-12-17T03:25:03.850Z,0.00
2022-12-17T03:26:03.814Z,0.00
2022-12-17T03:27:03.798Z,0.00
2022-12-17T03:28:03.765Z,0.00
2022-12-17T03:29:03.795Z,0.00
2022-12-17T03:30:03.729Z,0.00
2022-12-17T03:31:03.727Z,0.00
2022-12-17T03:32:03.671Z,0.00
2022-12-17T03:33:03.644Z,0.00
2022-12-17T03:34:03.620Z,0.00
2022-12-17T03:35:03.596Z,0.00
2022-12-17T03:36:03.566Z,0.00
2022-12-17T03:37:03.546Z,0.00
2022-12-17T03:38:03.514Z,0.00
2022-12-17T03:39:03.542Z,0.00
2022-12-17T03:40:03.466Z,0.00
2022-12-17T03:41:03.446Z,0.00
2022-12-17T03:42:03.414Z,0.00
2022-12-17T03:43:03.409Z,0.00
2022-12-17T03:44:03.363Z,0.00
2022-12-17T03:45:03.396Z,0.00
2022-12-17T03:46:03.357Z,0.00
2022-12-17T03:47:03.297Z,0.00
2022-12-17T03:48:03.281Z,0.00
2022-12-17T03:49:03.271Z,0.00
2022-12-17T03:50:03.218Z,0.00
2022-12-17T03:51:03.223Z,0.00
2022-12-17T03:52:03.167Z,0.00
2022-12-17T03:53:03.194Z,0.00
2022-12-17T03:54:03.118Z,0.00
2022-12-17T03:55:03.102Z,0.00
2022-12-17T03:56:03.074Z,0.00
2022-12-17T03:57:03.067Z,0.00
2022-12-17T03:58:03.039Z,0.00
2022-12-17T03:59:02.990Z,0.00
2022-12-17T04:00:02.967Z,0.00
2022-12-17T04:01:02.998Z,0.00
2022-12-17T04:02:03.205Z,0.00
2022-12-17T04:03:03.090Z,0.00
2022-12-17T04:04:02.862Z,0.00
2022-12-17T04:05:02.847Z,0.00
2022-12-17T04:06:02.811Z,0.00
2022-12-17T04:07:02.792Z,0.00
2022-12-17T04:08:02.824Z,0.00
2022-12-17T04:09:02.742Z,0.00
2022-12-17T04:10:02.718Z,0.00
2022-12-17T04:11:02.702Z,0.00
2022-12-17T04:12:02.664Z,0.00
2022-12-17T04:13:02.643Z,0.00
2022-12-17T04:14:02.615Z,0.00
2022-12-17T04:15:02.593Z,0.00
2022-12-17T04:16:02.643Z,0.00
2022-12-17T04:17:02.540Z,0.00
2022-12-17T04:18:02.511Z,0.00
2022-12-17T04:19:02.552Z,0.00
2022-12-17T04:20:02.471Z,0.00
2022-12-17T04:21:02.446Z,0.00
2022-12-17T04:22:02.412Z,0.00
2022-12-17T04:23:02.390Z,0.00
2022-12-17T04:24:02.360Z,0.00
2022-12-17T04:25:02.361Z,0.00
2022-12-17T04:26:02.309Z,0.00
2022-12-17T04:27:02.291Z,0.00
2022-12-17T04:28:02.266Z,0.00
2022-12-17T04:29:02.268Z,0.00
2022-12-17T04:30:02.247Z,0.00
2022-12-17T04:31:02.267Z,0.00
2022-12-17T04:32:02.170Z,0.00
2022-12-17T04:33:02.131Z,0.00
2022-12-17T04:34:02.112Z,0.00
2022-12-17T04:35:02.083Z,0.00
2022-12-17T04:36:02.109Z,0.00
2022-12-17T04:37:02.033Z,0.00
2022-12-17T04:38:02.004Z,0.00
2022-12-17T04:39:01.984Z,0.00
2022-12-17T04:40:01.963Z,0.00
2022-12-17T04:41:01.943Z,0.00
2022-12-17T04:42:01.914Z,0.00
2022-12-17T04:43:01.882Z,0.00
2022-12-17T04:44:03.362Z,0.00
2022-12-17T04:45:01.831Z,0.00
2022-12-17T04:46:01.877Z,0.00
2022-12-17T04:47:01.876Z,0.00
2022-12-17T04:48:01.759Z,0.00
2022-12-17T04:49:01.734Z,0.00
2022-12-17T04:50:01.707Z,0.00
2022-12-17T04:51:01.681Z,0.00
2022-12-17T04:52:01.652Z,0.00
2022-12-17T04:53:01.644Z,0.00
2022-12-17T04:54:01.634Z,0.00
2022-12-17T04:55:01.578Z,0.00
2022-12-17T04:56:01.552Z,0.00
2022-12-17T04:57:01.526Z,0.00
2022-12-17T04:58:01.500Z,0.00
2022-12-17T04:59:01.482Z,0.00
2022-12-17T05:00:01.474Z,0.00
2022-12-17T05:01:01.435Z,0.00
2022-12-17T05:02:01.562Z,0.00
2022-12-17T05:03:01.543Z,0.00
2022-12-17T05:04:01.470Z,0.00
2022-12-17T05:05:01.362Z,0.00
2022-12-17T05:06:01.322Z,0.00
2022-12-17T05:07:01.275Z,0.00
2022-12-17T05:08:01.261Z,0.00
2022-12-17T05:09:01.226Z,0.00
2022-12-17T05:10:01.206Z,0.00
2022-12-17T05:11:01.201Z,0.00
2022-12-17T05:12:01.174Z,0.00
2022-12-17T05:13:01.124Z,0.00
2022-12-17T05:14:01.123Z,0.00
2022-12-17T05:15:01.083Z,0.00
2022-12-17T05:16:01.108Z,0.00
2022-12-17T05:17:01.044Z,0.00
2022-12-17T05:18:01.002Z,0.00
2022-12-17T05:19:00.973Z,0.00
2022-12-17T05:20:00.947Z,0.00
2022-12-17T05:21:00.945Z,0.00
2022-12-17T05:22:00.889Z,0.00
2022-12-17T05:23:00.893Z,0.00
2022-12-17T05:24:00.850Z,0.00
2022-12-17T05:25:00.818Z,0.00
2022-12-17T05:26:00.797Z,0.00
2022-12-17T05:27:00.766Z,0.00
2022-12-17T05:28:00.798Z,0.00
2022-12-17T05:29:00.711Z,0.00
2022-12-17T05:30:00.684Z,0.00
2022-12-17T05:31:00.728Z,0.00
2022-12-17T05:32:00.637Z,0.00
2022-12-17T05:33:00.610Z,0.00
2022-12-17T05:34:00.626Z,0.00
2022-12-17T05:35:00.557Z,0.00
2022-12-17T05:36:00.529Z,0.00
2022-12-17T05:37:00.507Z,0.00
2022-12-17T05:38:00.480Z,0.00
2022-12-17T05:39:00.453Z,0.00
2022-12-17T05:40:00.440Z,0.00
2022-12-17T05:41:00.402Z,0.00
2022-12-17T05:42:00.374Z,0.00
2022-12-17T05:43:00.412Z,0.00
2022-12-17T05:44:00.324Z,0.00
2022-12-17T05:45:00.300Z,0.00
2022-12-17T05:46:00.279Z,0.00
2022-12-17T05:47:00.315Z,0.00
2022-12-17T05:48:00.222Z,0.00
2022-12-17T05:49:00.200Z,0.00
2022-12-17T05:50:00.172Z,0.00
2022-12-17T05:51:00.151Z,0.00
2022-12-17T05:52:00.118Z,0.00
2022-12-17T05:53:00.095Z,0.00
2022-12-17T05:54:00.132Z,0.00
2022-12-17T05:55:00.045Z,0.00
2022-12-17T05:56:00.018Z,0.00
2022-12-17T05:56:59.998Z,0.00
2022-12-17T05:57:59.983Z,0.00
2022-12-17T05:58:59.941Z,0.00
2022-12-17T05:59:59.921Z,0.00
2022-12-17T06:00:59.887Z,0.00
2022-12-17T06:01:59.935Z,0.00
2022-12-17T06:02:59.952Z,0.00
2022-12-17T06:03:59.891Z,0.00
2022-12-17T06:05:02.325Z,0.00
2022-12-17T06:05:59.763Z,0.00
2022-12-17T06:06:59.746Z,0.00
2022-12-17T06:07:59.711Z,0.00
2022-12-17T06:08:59.682Z,0.00
2022-12-17T06:09:59.707Z,0.00
2022-12-17T06:10:59.633Z,0.00
2022-12-17T06:12:02.773Z,0.00
2022-12-17T06:12:59.583Z,0.00
2022-12-17T06:13:59.559Z,0.00
2022-12-17T06:14:59.527Z,0.00
2022-12-17T06:15:59.585Z,0.00
2022-12-17T06:16:59.476Z,0.00
2022-12-17T06:17:59.454Z,0.00
2022-12-17T06:18:59.425Z,0.00
2022-12-17T06:19:59.456Z,0.00
2022-12-17T06:20:59.378Z,0.00
2022-12-17T06:21:59.352Z,0.00
2022-12-17T06:22:59.327Z,0.00
2022-12-17T06:23:59.302Z,0.00
2022-12-17T06:24:59.272Z,0.00
2022-12-17T06:25:59.325Z,0.00
2022-12-17T06:26:59.222Z,0.00
2022-12-17T06:27:59.198Z,0.00
2022-12-17T06:28:59.171Z,0.00
2022-12-17T06:29:59.160Z,0.00
2022-12-17T06:30:59.198Z,0.00
2022-12-17T06:31:59.179Z,0.00
2022-12-17T06:32:59.068Z,0.00
2022-12-17T06:33:59.076Z,0.00
2022-12-17T06:34:59.019Z,0.00
2022-12-17T06:35:59.022Z,0.00
2022-12-17T06:36:58.972Z,0.00
2022-12-17T06:37:58.943Z,0.00
2022-12-17T06:38:58.918Z,0.00
2022-12-17T06:39:58.887Z,0.00
2022-12-17T06:40:58.888Z,0.00
2022-12-17T06:42:04.289Z,0.00
2022-12-17T06:42:58.812Z,0.00
2022-12-17T06:43:58.790Z,0.00
2022-12-17T06:44:58.769Z,0.00
2022-12-17T06:45:58.735Z,0.00
2022-12-17T06:46:58.782Z,0.00
2022-12-17T06:47:58.687Z,0.00
2022-12-17T06:48:58.707Z,0.00
2022-12-17T06:50:01.486Z,0.00
2022-12-17T06:50:58.604Z,0.00
2022-12-17T06:51:58.582Z,0.00
2022-12-17T06:52:58.578Z,0.00
2022-12-17T06:53:58.525Z,0.00
2022-12-17T06:54:58.503Z,0.00
2022-12-17T06:55:58.485Z,4.00
2022-12-17T06:56:58.453Z,0.00
2022-12-17T06:57:58.425Z,0.00
2022-12-17T06:58:58.427Z,4.00
2022-12-17T06:59:58.378Z,0.00
2022-12-17T07:00:58.384Z,4.00
2022-12-17T07:01:58.413Z,0.00
2022-12-17T07:02:58.437Z,4.00
2022-12-17T07:03:58.272Z,4.00
2022-12-17T07:04:58.292Z,4.00
2022-12-17T07:05:58.217Z,4.00
2022-12-17T07:06:58.193Z,4.00
2022-12-17T07:07:58.170Z,4.00
2022-12-17T07:08:58.146Z,8.00
2022-12-17T07:09:58.116Z,8.00
2022-12-17T07:10:58.119Z,12.00
2022-12-17T07:11:58.131Z,12.00
2022-12-17T07:12:58.037Z,12.00
2022-12-17T07:13:58.015Z,16.00
2022-12-17T07:14:57.992Z,16.00
2022-12-17T07:15:58.015Z,16.00
2022-12-17T07:16:58.004Z,20.00
2022-12-17T07:17:57.914Z,24.00
2022-12-17T07:18:57.894Z,28.00
2022-12-17T07:19:57.859Z,28.00
2022-12-17T07:20:57.836Z,32.00
2022-12-17T07:21:57.804Z,36.00
2022-12-17T07:22:57.787Z,40.00
2022-12-17T07:23:57.756Z,40.00
2022-12-17T07:24:57.734Z,48.00
2022-12-17T07:25:57.705Z,52.00
2022-12-17T07:26:57.699Z,60.00
2022-12-17T07:27:57.701Z,64.00
2022-12-17T07:28:57.626Z,68.00
2022-12-17T07:29:57.611Z,76.00
2022-12-17T07:30:57.582Z,84.00
2022-12-17T07:31:57.595Z,84.00
2022-12-17T07:32:57.528Z,88.00
2022-12-17T07:33:57.501Z,92.00
2022-12-17T07:34:57.475Z,104.00
2022-12-17T07:35:57.478Z,108.00
2022-12-17T07:36:57.425Z,116.00
2022-12-17T07:37:57.394Z,124.00
2022-12-17T07:38:57.398Z,128.00
2022-12-17T07:39:57.342Z,136.00
2022-12-17T07:40:57.324Z,148.00
2022-12-17T07:41:57.291Z,156.00
2022-12-17T07:42:57.268Z,164.00
2022-12-17T07:43:57.278Z,172.00
2022-12-17T07:44:57.225Z,180.00
2022-12-17T07:45:57.259Z,192.00
2022-12-17T07:46:57.170Z,196.00
2022-12-17T07:47:57.140Z,200.00
2022-12-17T07:48:57.114Z,208.00
2022-12-17T07:49:57.118Z,220.00
2022-12-17T07:50:57.064Z,220.00
2022-12-17T07:51:57.038Z,240.00
2022-12-17T07:52:57.045Z,248.00
2022-12-17T07:53:56.981Z,268.00
2022-12-17T07:54:56.999Z,276.00
2022-12-17T07:55:56.942Z,280.00
2022-12-17T07:56:56.915Z,292.00
2022-12-17T07:57:56.877Z,292.00
2022-12-17T07:58:56.854Z,300.00
2022-12-17T07:59:56.829Z,312.00
2022-12-17T08:00:56.847Z,320.00
2022-12-17T08:01:56.885Z,324.00
2022-12-17T08:02:56.971Z,324.00
2022-12-17T08:03:56.727Z,340.00
2022-12-17T08:04:56.704Z,364.00
2022-12-17T08:05:56.727Z,388.00
2022-12-17T08:07:01.606Z,412.00
2022-12-17T08:07:56.620Z,408.00
2022-12-17T08:08:56.598Z,424.00
2022-12-17T08:09:56.574Z,456.00
2022-12-17T08:10:56.550Z,448.00
2022-12-17T08:11:56.563Z,460.00
2022-12-17T08:12:56.527Z,472.00
2022-12-17T08:13:56.467Z,504.00
2022-12-17T08:14:56.444Z,508.00
2022-12-17T08:15:56.415Z,500.00
2022-12-17T08:16:56.479Z,520.00
2022-12-17T08:17:56.379Z,516.00
2022-12-17T08:18:56.343Z,524.00
2022-12-17T08:19:56.316Z,564.00
2022-12-17T08:20:56.290Z,560.00
2022-12-17T08:21:56.261Z,644.00
2022-12-17T08:22:56.284Z,672.00
2022-12-17T08:23:58.262Z,680.00
2022-12-17T08:24:56.229Z,668.00
2022-12-17T08:25:56.251Z,768.00
2022-12-17T08:26:56.391Z,772.00
2022-12-17T08:27:56.130Z,712.00
2022-12-17T08:28:56.093Z,732.00
2022-12-17T08:29:56.141Z,760.00
2022-12-17T08:30:56.115Z,732.00
2022-12-17T08:31:56.069Z,728.00
2022-12-17T08:32:55.984Z,760.00
2022-12-17T08:33:55.957Z,784.00
2022-12-17T08:34:55.965Z,772.00
2022-12-17T08:35:55.961Z,728.00
2022-12-17T08:36:55.891Z,764.00
2022-12-17T08:37:55.852Z,812.00
2022-12-17T08:38:55.859Z,804.00
2022-12-17T08:39:55.817Z,812.00
2022-12-17T08:40:55.820Z,776.00
2022-12-17T08:41:58.437Z,768.00
2022-12-17T08:42:55.728Z,788.00
2022-12-17T08:43:55.720Z,832.00
2022-12-17T08:44:55.744Z,844.00
2022-12-17T08:45:55.726Z,824.00
2022-12-17T08:46:55.644Z,856.00
2022-12-17T08:47:59.194Z,888.00
2022-12-17T08:48:55.573Z,944.00
2022-12-17T08:49:55.594Z,964.00
2022-12-17T08:50:55.542Z,960.00
2022-12-17T08:51:55.557Z,1008.00
2022-12-17T08:52:55.486Z,1032.00
2022-12-17T08:53:55.448Z,1072.00
2022-12-17T08:54:55.427Z,1048.00
2022-12-17T08:55:55.411Z,1128.00
2022-12-17T08:56:55.375Z,1200.00
2022-12-17T08:57:55.393Z,1148.00
2022-12-17T08:58:59.156Z,1188.00
2022-12-17T08:59:55.291Z,1148.00
2022-12-17T09:00:55.318Z,1188.00
2022-12-17T09:01:55.368Z,1196.00
2022-12-17T09:02:55.319Z,1240.00
2022-12-17T09:03:55.246Z,1276.00
2022-12-17T09:04:55.186Z,1396.00
2022-12-17T09:05:55.141Z,1260.00
2022-12-17T09:06:55.123Z,1224.00
2022-12-17T09:07:55.097Z,1276.00
2022-12-17T09:08:55.068Z,1240.00
2022-12-17T09:09:55.089Z,1192.00
2022-12-17T09:10:55.019Z,1192.00
2022-12-17T09:11:54.992Z,1140.00
2022-12-17T09:12:58.588Z,1208.00
2022-12-17T09:13:54.940Z,1232.00
2022-12-17T09:14:54.923Z,1252.00
2022-12-17T09:15:54.920Z,1288.00
2022-12-17T09:16:54.904Z,1300.00
2022-12-17T09:17:54.840Z,1276.00
2022-12-17T09:18:54.825Z,1412.00
2022-12-17T09:19:54.793Z,1436.00
2022-12-17T09:20:55.199Z,1412.00
2022-12-17T09:21:54.811Z,1432.00
2022-12-17T09:22:54.749Z,1412.00
2022-12-17T09:23:54.760Z,1520.00
2022-12-17T09:24:54.691Z,1540.00
2022-12-17T09:25:58.078Z,1416.00
2022-12-17T09:26:54.647Z,1404.00
2022-12-17T09:27:54.590Z,1500.00
2022-12-17T09:28:54.567Z,1544.00
2022-12-17T09:29:54.543Z,1508.00
2022-12-17T09:30:54.675Z,1568.00
2022-12-17T09:31:54.496Z,1512.00
2022-12-17T09:32:54.467Z,1460.00
2022-12-17T09:33:54.445Z,1476.00
2022-12-17T09:34:54.420Z,1516.00
2022-12-17T09:35:54.397Z,1652.00
2022-12-17T09:36:54.437Z,1616.00
2022-12-17T09:37:54.365Z,1696.00
2022-12-17T09:38:54.331Z,1580.00
2022-12-17T09:39:54.293Z,1460.00
2022-12-17T09:40:54.280Z,1432.00
2022-12-17T09:41:54.244Z,1632.00
2022-12-17T09:42:59.560Z,1876.00
2022-12-17T09:43:54.198Z,1876.00
2022-12-17T09:44:54.171Z,1976.00
2022-12-17T09:45:54.173Z,2004.00
2022-12-17T09:46:54.121Z,1976.00
2022-12-17T09:47:54.104Z,1984.00
2022-12-17T09:48:54.130Z,2168.00
2022-12-17T09:49:54.051Z,2016.00
2022-12-17T09:50:54.058Z,1840.00
2022-12-17T09:51:54.116Z,1912.00
2022-12-17T09:52:53.980Z,1868.00
2022-12-17T09:53:53.961Z,1864.00
2022-12-17T09:54:59.274Z,2148.00
2022-12-17T09:55:53.903Z,2180.00
2022-12-17T09:56:53.876Z,2024.00
2022-12-17T09:57:53.897Z,1864.00
2022-12-17T09:58:53.829Z,2128.00
2022-12-17T09:59:53.803Z,2252.00
2022-12-17T10:00:57.695Z,2164.00
2022-12-17T10:01:53.888Z,2088.00
2022-12-17T10:02:53.969Z,2240.00
2022-12-17T10:03:53.843Z,2160.00
2022-12-17T10:04:53.686Z,2124.00
2022-12-17T10:05:53.659Z,1756.00
2022-12-17T10:06:53.631Z,2000.00
2022-12-17T10:07:53.628Z,2036.00
2022-12-17T10:08:53.578Z,2076.00
2022-12-17T10:09:53.587Z,2224.00
2022-12-17T10:10:53.534Z,1968.00
2022-12-17T10:11:53.514Z,1916.00
2022-12-17T10:12:53.481Z,1960.00
2022-12-17T10:13:53.458Z,1924.00
2022-12-17T10:14:53.443Z,1980.00
2022-12-17T10:15:53.553Z,1876.00
2022-12-17T10:16:53.390Z,1996.00
2022-12-17T10:17:53.359Z,2148.00
2022-12-17T10:18:53.339Z,1924.00
2022-12-17T10:19:53.312Z,1752.00
2022-12-17T10:20:53.307Z,1668.00
2022-12-17T10:21:53.305Z,1652.00
2022-12-17T10:22:53.243Z,1700.00
2022-12-17T10:23:53.220Z,1872.00
2022-12-17T10:24:53.190Z,1940.00
2022-12-17T10:25:53.165Z,2152.00
2022-12-17T10:26:53.145Z,2136.00
2022-12-17T10:27:53.118Z,2128.00
2022-12-17T10:28:53.120Z,2096.00
2022-12-17T10:29:53.072Z,1996.00
2022-12-17T10:30:53.060Z,1896.00
2022-12-17T10:31:53.019Z,1996.00
2022-12-17T10:32:52.997Z,2196.00
2022-12-17T10:33:53.002Z,2324.00
2022-12-17T10:34:53.013Z,2244.00
2022-12-17T10:35:52.923Z,2316.00
2022-12-17T10:36:52.896Z,2128.00
2022-12-17T10:37:52.875Z,2008.00
2022-12-17T10:38:52.859Z,1928.00
2022-12-17T10:39:52.821Z,1984.00
2022-12-17T10:40:52.831Z,1964.00
2022-12-17T10:41:52.773Z,2356.00
2022-12-17T10:42:52.765Z,2324.00
2022-12-17T10:43:52.732Z,2276.00
2022-12-17T10:44:52.719Z,2496.00
2022-12-17T10:45:52.674Z,2108.00
2022-12-17T10:46:52.710Z,2152.00
2022-12-17T10:47:52.685Z,2188.00
2022-12-17T10:48:52.604Z,2060.00
2022-12-17T10:49:52.636Z,2324.00
2022-12-17T10:50:52.557Z,2516.00
2022-12-17T10:51:52.527Z,2716.00
2022-12-17T10:52:52.506Z,2884.00
2022-12-17T10:53:52.479Z,3184.00
2022-12-17T10:54:52.463Z,2736.00
2022-12-17T10:55:52.451Z,2764.00
2022-12-17T10:56:52.421Z,2716.00
2022-12-17T10:57:52.377Z,2632.00
2022-12-17T10:58:52.362Z,2684.00
2022-12-17T10:59:52.324Z,2564.00
2022-12-17T11:00:52.356Z,2644.00
2022-12-17T11:01:52.416Z,2968.00
2022-12-17T11:02:52.547Z,3076.00
2022-12-17T11:03:52.354Z,3324.00
2022-12-17T11:04:52.234Z,3340.00
2022-12-17T11:05:57.772Z,2952.00
2022-12-17T11:06:52.204Z,2996.00
2022-12-17T11:07:52.130Z,2644.00
2022-12-17T11:08:52.112Z,2656.00
2022-12-17T11:09:52.087Z,2676.00
2022-12-17T11:10:52.121Z,2440.00
2022-12-17T11:11:52.034Z,2464.00
2022-12-17T11:12:52.043Z,2696.00
2022-12-17T11:13:51.987Z,2776.00
2022-12-17T11:14:51.966Z,2576.00
2022-12-17T11:15:51.976Z,2280.00
2022-12-17T11:16:51.930Z,2228.00
2022-12-17T11:17:51.896Z,2364.00
2022-12-17T11:18:51.871Z,2860.00
2022-12-17T11:19:51.852Z,2344.00
2022-12-17T11:20:51.824Z,2204.00
2022-12-17T11:21:51.851Z,2224.00
2022-12-17T11:22:51.776Z,2356.00
2022-12-17T11:23:51.757Z,2204.00
2022-12-17T11:24:51.729Z,2252.00
2022-12-17T11:25:51.698Z,2364.00
2022-12-17T11:26:51.677Z,1944.00
2022-12-17T11:27:51.678Z,2160.00
2022-12-17T11:28:51.635Z,2332.00
2022-12-17T11:29:51.617Z,2344.00
2022-12-17T11:30:51.615Z,2588.00
2022-12-17T11:31:51.556Z,3052.00
2022-12-17T11:32:51.560Z,2936.00
2022-12-17T11:33:51.514Z,2828.00
2022-12-17T11:34:51.490Z,2544.00
2022-12-17T11:35:51.464Z,2508.00
2022-12-17T11:36:51.438Z,2492.00
2022-12-17T11:37:51.439Z,2416.00
2022-12-17T11:38:51.395Z,2708.00
2022-12-17T11:39:51.387Z,2800.00
2022-12-17T11:40:51.346Z,2740.00
2022-12-17T11:41:51.320Z,2336.00
2022-12-17T11:42:51.309Z,2628.00
2022-12-17T11:43:51.266Z,2840.00
2022-12-17T11:44:51.281Z,3012.00
2022-12-17T11:45:51.223Z,2816.00
2022-12-17T11:46:51.326Z,3260.00
2022-12-17T11:47:54.897Z,3420.00
2022-12-17T11:48:51.160Z,3108.00
2022-12-17T11:49:51.127Z,2932.00
2022-12-17T11:50:51.105Z,2664.00
2022-12-17T11:51:51.075Z,2596.00
2022-12-17T11:52:51.053Z,2216.00
2022-12-17T11:53:51.026Z,2436.00
2022-12-17T11:54:51.054Z,2288.00
2022-12-17T11:55:50.987Z,2580.00
2022-12-17T11:56:50.962Z,2600.00
2022-12-17T11:57:50.934Z,2952.00
2022-12-17T11:58:50.911Z,3252.00
2022-12-17T11:59:54.296Z,3896.00
2022-12-17T12:00:50.868Z,3904.00
2022-12-17T12:01:50.921Z,4316.00
2022-12-17T12:02:50.945Z,4308.00
2022-12-17T12:03:50.935Z,4232.00
2022-12-17T12:04:50.766Z,3852.00
2022-12-17T12:05:56.294Z,3972.00
2022-12-17T12:06:50.717Z,3824.00
2022-12-17T12:07:50.696Z,3648.00
2022-12-17T12:08:50.669Z,3960.00
2022-12-17T12:09:50.648Z,3548.00
2022-12-17T12:10:50.634Z,4236.00
2022-12-17T12:11:50.601Z,3692.00
2022-12-17T12:12:50.575Z,4280.00
2022-12-17T12:13:50.548Z,4872.00
2022-12-17T12:14:50.531Z,4884.00
2022-12-17T12:15:50.540Z,4268.00
2022-12-17T12:16:50.526Z,3208.00
2022-12-17T12:17:50.454Z,2788.00
2022-12-17T12:18:50.486Z,2464.00
2022-12-17T12:19:50.410Z,2484.00
2022-12-17T12:20:50.401Z,2524.00
2022-12-17T12:21:50.359Z,3220.00
2022-12-17T12:22:50.342Z,3388.00
2022-12-17T12:23:50.314Z,3432.00
2022-12-17T12:24:50.319Z,3280.00
2022-12-17T12:25:50.264Z,3424.00
2022-12-17T12:26:50.272Z,3600.00
2022-12-17T12:27:50.218Z,3236.00
2022-12-17T12:28:50.196Z,3332.00
2022-12-17T12:29:50.170Z,3500.00
2022-12-17T12:30:50.195Z,3112.00
2022-12-17T12:31:50.162Z,2896.00
2022-12-17T12:32:50.101Z,3100.00
2022-12-17T12:33:50.073Z,3868.00
2022-12-17T12:34:50.055Z,4700.00
2022-12-17T12:35:50.026Z,5380.00
2022-12-17T12:36:50.035Z,7312.00
2022-12-17T12:37:49.980Z,6276.00
2022-12-17T12:38:50.090Z,3732.00
2022-12-17T12:39:49.938Z,3292.00
2022-12-17T12:40:49.911Z,3152.00
2022-12-17T12:41:49.914Z,2892.00
2022-12-17T12:42:49.866Z,2832.00
2022-12-17T12:43:49.842Z,2828.00
2022-12-17T12:44:49.992Z,2816.00
2022-12-17T12:45:49.836Z,3260.00
2022-12-17T12:46:49.796Z,3300.00
2022-12-17T12:47:49.747Z,3256.00